x

8452944 - Conimicut Light, Ri (cptr1) Weather Station

9:54 - Wed 26th Jul 2017 All times are EDT. -4 hours from GMT.

  • Wind
    14mph, 14mph gusts
  • Sea Temp 70°f
  • Ar Temp 67°f
  • Sea Pressure 1020.9mb
  • 8452944 - Conimicut Light, Ri
  • 8452944 - Conimicut Light, Ri

More Historic Weather Station data

Upgrade to MSW Pro to gain access to the past 30 days of data for over 8000 Wavebouys and Weather Stations around the globe.

Join Pro

Comparision Forecast

View Surf forecast
   
Qua 07/26 9:54 14 14 mph 1020.9mb 70f 67f
9:48 11 15 mph 1021mb 70f 67f
9:42 14 16 mph 1020.9mb 70f 67f
9:36 14 16 mph 1020.9mb 70f 67f
9:30 13 17 mph 1020.9mb 70f 67f
9:24 17 18 mph 1020.9mb 70f 67f
9:18 17 18 mph 1020.9mb 70f 68f
9:12 17 20 mph 1020.8mb 70f 68f
9:06 17 18 mph 1020.7mb 70f 68f
9:00 16 18 mph 1020.7mb 70f 68f
8:54 17 18 mph 1020.7mb 70f 68f
8:48 15 17 mph 1020.6mb 70f 68f
8:42 16 18 mph 1020.5mb 70f 68f
8:36 16 20 mph 1020.5mb 70f 69f
8:30 16 20 mph 1020.6mb 70f 69f
8:24 17 20 mph 1020.6mb 70f 69f
8:18 17 20 mph 1020.7mb 70f 69f
8:12 16 18 mph 1020.7mb 70f 69f
8:06 16 18 mph 1020.6mb 70f 69f
8:00 17 18 mph 1020.6mb 70f 69f
7:54 17 20 mph 1020.6mb 70f 69f
7:48 17 20 mph 1020.6mb 70f 69f
7:42 17 20 mph 1020.6mb 70f 69f
7:36 18 20 mph 1020.5mb 70f 69f
7:30 18 21 mph 1020.6mb 70f 69f
7:24 17 20 mph 1020.6mb 70f 70f
7:18 18 18 mph 1020.6mb 71f 70f
7:12 16 18 mph 1020.7mb 71f 70f
7:06 16 18 mph 1020.6mb 71f 70f
7:00 16 18 mph 1020.6mb 71f 70f
6:54 17 18 mph 1020.6mb 71f 70f
6:48 17 18 mph 1020.6mb 71f 70f
6:42 17 18 mph 1020.6mb 70f 70f
6:36 17 18 mph 1020.5mb 70f 70f
6:30 17 18 mph 1020.5mb 70f 70f
6:24 16 17 mph 1020.5mb 70f 70f
6:18 16 18 mph 1020.5mb 69f 70f
6:12 16 18 mph 1020.5mb 69f 70f
6:06 16 18 mph 1020.4mb 69f 70f
6:00 17 20 mph 1020.4mb 69f 71f
5:54 18 20 mph 1020.4mb 69f 70f
5:48 18 20 mph 1020.4mb 69f 70f
5:42 18 20 mph 1020.3mb 69f 70f
5:36 17 20 mph 1020.4mb 69f 70f
5:30 17 20 mph 1020.5mb 69f 71f
5:24 17 20 mph 1020.6mb 69f 71f
5:18 16 17 mph 1020.7mb 70f 71f
5:12 17 18 mph 1020.8mb 70f 71f
5:06 16 17 mph 1020.8mb 70f 71f
5:00 15 18 mph 1020.8mb 70f 71f
4:54 16 17 mph 1020.8mb 70f 71f
4:48 16 18 mph 1020.9mb 70f 71f
4:42 17 18 mph 1020.9mb 70f 71f
4:36 18 18 mph 1020.9mb 70f 70f
4:30 16 17 mph 1020.9mb 71f 70f
4:24 16 17 mph 1020.9mb 71f 70f
4:18 16 16 mph 1021mb 71f 70f
4:12 15 16 mph 1021mb 71f 70f
4:06 16 16 mph 1021.2mb 71f 70f
4:00 16 17 mph 1021.2mb 71f 70f
3:54 15 16 mph 1021.4mb 71f 70f
3:48 15 16 mph 1021.4mb 71f 70f
3:42 15 16 mph 1021.4mb 71f 70f
3:36 16 17 mph 1021.4mb 71f 70f
3:30 14 16 mph 1021.6mb 71f 70f
3:24 16 17 mph 1021.5mb 71f 70f
3:18 16 16 mph 1021.3mb 71f 70f
3:12 14 15 mph 1021.4mb 72f 71f
3:06 14 15 mph 1021.5mb 72f 71f
3:00 14 15 mph 1021.5mb 72f 71f
2:54 14 15 mph 1021.6mb 72f 71f
2:48 15 16 mph 1021.7mb 71f 70f
2:42 15 16 mph 1021.8mb 71f 70f
2:36 14 14 mph 1021.8mb 71f 71f
2:30 14 14 mph 1021.9mb 71f 71f
2:24 14 15 mph 1022mb 71f 71f
2:18 11 11 mph 1022.1mb 70f 72f
2:12 9 9 mph 1022.1mb 70f 72f
2:06 7 7 mph 1022.2mb 70f 72f
2:00 7 8 mph 1022.2mb 70f 72f
1:54 7 8 mph 1022.3mb 70f 72f
1:48 7 8 mph 1022.3mb 70f 72f
1:42 7 8 mph 1022.4mb 70f 72f
1:36 7 7 mph 1022.5mb 70f 72f
1:30 7 7 mph 1022.6mb 70f 72f
1:24 7 8 mph 1022.5mb 70f 72f
1:18 7 8 mph 1022.6mb 70f 71f
1:12 7 7 mph 1022.5mb 70f 72f
1:06 7 7 mph 1022.6mb 70f 71f
1:00 7 7 mph 1022.7mb 70f 71f
12:54 6 7 mph 1022.7mb 69f 71f
12:48 6 6 mph 1022.9mb 69f 71f
12:42 6 6 mph 1022.9mb 69f 71f
12:36 6 6 mph 1022.9mb 69f 71f
12:30 7 7 mph 1022.9mb 69f 71f
12:24 7 8 mph 1023.1mb 69f 71f
12:18 8 8 mph 1023.1mb 70f 71f
12:12 7 7 mph 1023.1mb 69f 71f
12:06 6 6 mph 1023.1mb 69f 70f
12:00 6 6 mph 1023.2mb 69f 70f
11:54 5 5 mph 1023.2mb 69f 70f
11:48 3 5 mph 1023.3mb 69f 70f
11:42 5 6 mph 1023.4mb 69f 69f
11:36 5 6 mph 1023.5mb 69f 69f
11:30 5 6 mph 1023.5mb 69f 69f
11:24 5 5 mph 1023.4mb 69f 69f
11:18 5 6 mph 1023.5mb 69f 69f
11:12 5 5 mph 1023.7mb 69f 68f
11:06 5 5 mph 1023.8mb 69f 68f
11:00 3 5 mph 1024mb 69f 68f
10:54 3 3 mph 1024mb 69f 68f
10:48 2 2 mph 1023.9mb 69f 68f
10:42 2 2 mph 1023.8mb 69f 68f
10:36  -  1 mph 1023.8mb 69f 67f
10:30 1 2 mph 1023.9mb 69f 67f
10:24 2 3 mph 1024mb 69f 67f
10:18 3 3 mph 1024.1mb 69f 67f
10:12 2 3 mph 1024.1mb 69f 66f
10:06 2 3 mph 1024.1mb 69f 66f
10:00 2 3 mph 1024.1mb 69f 66f
9:54 2 3 mph 1024.1mb 69f 66f
9:48 3 5 mph 1024.1mb 69f 65f
9:42 3 5 mph 1024.1mb 69f 65f
9:36 3 5 mph 1024.2mb 69f 65f
9:30 5 5 mph 1024.2mb 69f 64f
9:24 3 5 mph 1024.2mb 69f 64f
9:18 3 3 mph 1024.2mb 69f 64f
9:12 2 3 mph 1024.1mb 69f 63f
9:06 2 3 mph 1024.1mb 69f 63f
9:00 2 3 mph 1024.1mb 69f 63f
8:54  -  1 mph 1024mb 69f 63f
8:48  -  0 mph 1024mb 69f 64f
8:42  -  0 mph 1023.9mb 69f 64f
8:36  -  1 mph 1023.9mb 69f 64f
8:30  -  0 mph 1023.8mb 69f 64f
8:24  -  2 mph 1023.8mb 69f 62f
8:18 1 2 mph 1023.9mb 69f 62f
8:12 2 3 mph 1023.9mb 69f 62f
8:06 3 5 mph 1023.8mb 69f 61f
8:00 3 5 mph 1023.8mb 69f 62f
7:54 3 6 mph 1023.9mb 69f 63f
7:48 3 6 mph 1023.9mb 69f 62f
7:42 5 6 mph 1023.8mb 68f 62f
7:36 6 6 mph 1023.8mb 68f 62f
7:30 5 6 mph 1023.8mb 68f 62f
7:24 5 6 mph 1023.8mb 68f 62f
7:18 5 6 mph 1023.7mb 68f 61f
7:12 5 6 mph 1023.8mb 68f 61f
7:06 5 6 mph 1023.7mb 68f 61f
7:00 5 6 mph 1023.6mb 68f 61f
6:54 5 5 mph 1023.6mb 68f 61f
6:48 3 5 mph 1023.5mb 68f 60f
6:42 3 6 mph 1023.4mb 68f 59f
6:36 3 5 mph 1023.4mb 68f 59f
6:30 3 6 mph 1023.5mb 68f 59f
6:24 3 6 mph 1023.4mb 68f 59f
6:18 5 6 mph 1023.4mb 68f 59f
6:12 5 6 mph 1023.4mb 68f 59f
6:06 6 7 mph 1023.4mb 68f 59f
6:00 6 7 mph 1023.4mb 68f 59f
5:54 6 6 mph 1023.5mb 68f 59f
5:48 5 6 mph 1023.3mb 68f 59f
5:42 5 6 mph 1023.3mb 68f 59f
5:36 3 6 mph 1023.3mb 68f 58f
5:30 5 6 mph 1023.3mb 69f 58f
5:24 3 5 mph 1023.2mb 69f 59f
5:18 3 5 mph 1023.1mb 69f 59f
5:12 3 5 mph 1023.1mb 69f 59f
5:06 3 3 mph 1023mb 69f 59f
5:00 2 3 mph 1023mb 69f 58f
4:54 2 3 mph 1023mb 69f 58f
4:48 2 3 mph 1023.1mb 69f 58f
4:42 3 5 mph 1023.2mb 69f 58f
4:36 5 6 mph 1023.1mb 69f 58f
4:30 5 5 mph 1023.2mb 69f 59f
4:24 3 5 mph 1023.1mb 69f 59f
4:18 3 6 mph 1023.1mb 68f 59f
4:12 5 7 mph 1023.1mb 68f 59f
4:06 7 8 mph 1023.1mb 68f 60f
4:00 7 7 mph 1023.1mb 68f 60f
3:54 7 7 mph 1023mb 68f 60f
3:48 6 6 mph 1023mb 68f 60f
3:42 3 6 mph 1023mb 68f 60f
3:36 5 6 mph 1022.9mb 68f 60f
3:30 5 6 mph 1023mb 69f 60f
3:24 5 6 mph 1022.9mb 69f 60f
3:18 6 7 mph 1022.9mb 69f 60f
3:12 6 6 mph 1022.8mb 69f 60f
3:06 6 6 mph 1022.9mb 69f 60f
3:00 6 7 mph 1023mb 69f 60f
2:54 6 7 mph 1022.9mb 69f 60f
2:48 6 7 mph 1022.9mb 69f 60f
2:42 7 7 mph 1022.9mb 69f 60f
2:36 7 8 mph 1022.9mb 69f 60f
2:30 7 9 mph 1022.9mb 69f 60f
2:24 8 9 mph 1022.9mb 68f 60f
2:18 8 9 mph 1022.9mb 69f 60f
2:12 8 9 mph 1022.9mb 69f 60f
2:06 8 8 mph 1022.9mb 69f 61f
2:00 8 9 mph 1022.9mb 69f 61f
1:54 8 9 mph 1022.8mb 69f 61f
1:48 8 10 mph 1022.7mb - -
1:42 9 11 mph 1022.8mb - -
1:36 10 11 mph 1022.8mb - -
1:30 11 13 mph 1022.9mb 69f 61f
1:24 11 13 mph 1022.9mb 69f 61f
1:18 11 14 mph 1023mb 69f 61f
1:12 11 13 mph 1023.1mb 69f 61f
1:06 11 14 mph 1023.1mb 69f 61f
1:00 11 14 mph 1023.1mb 69f 61f
12:54 11 13 mph 1023.1mb 69f 61f
12:48 11 13 mph 1023mb 69f 61f
12:42 10 11 mph 1023mb 69f 61f
12:36 10 11 mph 1023mb 69f 61f
12:30 11 11 mph 1023mb 69f 61f
12:24 10 11 mph 1023mb 69f 61f
12:18 10 11 mph 1023.1mb 69f 61f
12:12 9 10 mph 1023.2mb 69f 61f
12:06 8 9 mph 1023.3mb 69f 61f
12:00 9 10 mph 1023.3mb 69f 61f
Ter 07/25 11:54 8 10 mph 1023.4mb 69f 61f
11:48 9 10 mph 1023.5mb 69f 61f
11:42 9 10 mph 1023.4mb 69f 62f
11:36 8 9 mph 1023.4mb 69f 62f
11:30 7 9 mph 1023.3mb 69f 62f
11:24 7 9 mph 1023.3mb 69f 61f
11:18 8 9 mph 1023.3mb 69f 61f
11:12 6 8 mph 1023.2mb 69f 61f
11:06 7 8 mph 1023.3mb 69f 61f
11:00 7 7 mph 1023.1mb 69f 61f
10:54 7 8 mph 1023mb 69f 62f
10:48 7 8 mph 1023.1mb 69f 62f
10:42 7 8 mph 1023mb 69f 62f
10:36 7 8 mph 1022.9mb 69f 62f
10:30 7 8 mph 1022.9mb 69f 62f
10:24 6 7 mph 1023mb 69f 62f
10:18 6 6 mph 1022.9mb 69f 62f
10:12 6 7 mph 1022.9mb 69f 62f
10:06 6 9 mph 1022.9mb 69f 62f
10:00 6 8 mph 1022.9mb 69f 62f
9:54 7 8 mph 1022.9mb 69f 62f
9:48 7 8 mph 1022.7mb 69f 62f
9:42 6 8 mph 1022.8mb 69f 62f
9:36 6 7 mph 1022.7mb 69f 62f
9:30 6 8 mph 1022.6mb 69f 63f
9:24 6 8 mph 1022.7mb 69f 63f
9:18 7 8 mph 1022.6mb 69f 63f
9:12 7 7 mph 1022.6mb 69f 63f
9:06 6 8 mph 1022.5mb 69f 63f
9:00 7 9 mph 1022.5mb 69f 63f
8:54 7 8 mph 1022.6mb 69f 63f
8:48 7 8 mph 1022.6mb 69f 64f
8:42 6 6 mph 1022.5mb 69f 63f
8:36 6 7 mph 1022.3mb 69f 64f
8:30 6 7 mph 1022.3mb 69f 64f
8:24 6 7 mph 1022.2mb 69f 64f
8:18 5 6 mph - - -
8:12 6 7 mph 1022.2mb 69f 64f
8:06 6 7 mph 1022.2mb 69f 64f
8:00 6 7 mph 1022.1mb 69f 64f
7:54 7 10 mph 1022.1mb 69f 65f
7:48 9 10 mph 1022.1mb 69f 65f
7:42 8 13 mph 1022.1mb 69f 65f
7:36 8 11 mph 1022mb 69f 65f
7:30 8 9 mph 1021.9mb 69f 65f
7:24 8 10 mph 1021.8mb 69f 65f
7:18 8 10 mph 1021.8mb 69f 65f
7:12 9 11 mph 1021.7mb 69f 65f
7:06 8 11 mph 1021.6mb 69f 65f
7:00 7 9 mph 1021.5mb 69f 65f
6:54 7 9 mph 1021.5mb 69f 64f
6:48 6 10 mph 1021.5mb 69f 64f
6:42 9 13 mph 1021.5mb 69f 64f
6:36 10 13 mph 1021.4mb 69f 64f
6:30 11 14 mph 1021.3mb 69f 64f
6:24 10 14 mph 1021.3mb 69f 64f
6:18 10 13 mph 1021.3mb 69f 64f
6:12 7 10 mph 1021.3mb 69f 64f
6:06 8 9 mph 1021.4mb 69f 64f
6:00 8 11 mph 1021.4mb 69f 63f
5:54 10 13 mph 1021.3mb 69f 63f
5:48 10 11 mph 1021.3mb 69f 63f
5:42 9 11 mph 1021.2mb 69f 63f
5:36 7 9 mph 1021.2mb 69f 63f
5:30 9 11 mph 1021.2mb 69f 63f
5:24 9 11 mph 1021.1mb 69f 63f
5:18 9 11 mph 1021.1mb 69f 63f
5:12 9 13 mph 1021.2mb 69f 63f
5:06 9 13 mph 1021mb 69f 63f
5:00 10 11 mph 1021mb 69f 63f
4:54 10 13 mph 1021mb 69f 63f
4:48 11 15 mph 1021mb 69f 63f
4:42 13 14 mph 1021mb 69f 63f
4:36 10 14 mph 1021mb 69f 63f
4:30 10 14 mph 1021mb 69f 63f
4:24 10 14 mph 1021mb 69f 63f
4:18 9 11 mph 1020.9mb 69f 63f
4:12 9 11 mph 1020.9mb 69f 63f
4:06 7 9 mph 1021mb 69f 63f
4:00 8 10 mph 1021mb 69f 63f
3:54 7 10 mph 1021.1mb 69f 64f
3:48 10 11 mph 1021mb 69f 63f
3:42 9 11 mph 1021mb 69f 63f
3:36 8 13 mph 1020.9mb 69f 63f
3:30 10 13 mph 1021mb 69f 63f
3:24 10 14 mph 1020.9mb 69f 63f
3:18 11 14 mph 1020.8mb 69f 62f
3:12 15 17 mph 1020.8mb 69f 62f
3:06 10 15 mph 1020.6mb 69f 63f
3:00 11 14 mph 1020.6mb 69f 63f
2:54 10 14 mph 1020.6mb 69f 63f
2:48 11 13 mph 1020.5mb 69f 62f
2:42 8 13 mph 1020.5mb 69f 62f
2:36 9 14 mph 1020.5mb 69f 62f
2:30 13 16 mph 1020.3mb 69f 62f
2:24 14 17 mph 1020.3mb 69f 62f
2:18 13 14 mph 1020.3mb 69f 62f
2:12 13 16 mph 1020.2mb 69f 62f
2:06 9 13 mph 1020.3mb 69f 62f
2:00 11 13 mph 1020.3mb 69f 62f
1:54 11 13 mph 1020.2mb 69f 61f
1:48 11 15 mph 1020.2mb 69f 62f
1:42 14 17 mph 1020.1mb 69f 61f
1:36 13 18 mph 1020mb 69f 62f
1:30 17 20 mph 1019.9mb 69f 62f
1:24 10 13 mph 1019.9mb 69f 62f
1:18 11 17 mph 1019.9mb 69f 61f
1:12 10 16 mph 1019.8mb 69f 61f
1:06 14 16 mph 1019.8mb 69f 61f
1:00 13 17 mph 1019.8mb 69f 61f
12:54 15 18 mph 1019.7mb 69f 61f
12:48 14 17 mph 1019.8mb 69f 61f
12:42 11 15 mph 1019.9mb 69f 61f
12:36 14 17 mph 1019.9mb 69f 61f
12:30 10 15 mph 1019.9mb 69f 61f
12:24 11 16 mph 1019.9mb 69f 61f
12:18 13 16 mph 1019.9mb 69f 61f
12:12 11 15 mph 1019.9mb 69f 61f
12:06 13 17 mph 1019.8mb 69f 61f
12:00 13 16 mph 1019.7mb 69f 61f
11:54 13 15 mph 1019.7mb 69f 61f
11:48 11 15 mph 1019.6mb 69f 60f
11:42 11 15 mph 1019.5mb 69f 60f
11:36 13 17 mph 1019.4mb 69f 61f
11:30 14 17 mph 1019.3mb 70f 60f
11:24 14 17 mph 1019.2mb 70f 60f
11:18 14 16 mph 1019.2mb 70f 60f
11:12 13 15 mph 1019.2mb 70f 60f
11:06 11 16 mph 1019.1mb 70f 60f
11:00 11 14 mph 1019.1mb 70f 60f
10:54 11 14 mph 1019.1mb 70f 60f
10:48 10 14 mph 1019.1mb 70f 60f
10:42 11 15 mph 1019mb 70f 60f
10:36 11 15 mph 1019mb 70f 60f
10:30 11 15 mph 1019mb 70f 60f
10:24 11 14 mph 1019.1mb 69f 60f
10:18 11 15 mph 1019mb 69f 60f
10:12 10 15 mph 1019mb 69f 60f
10:06 11 13 mph 1018.9mb 70f 60f
10:00 10 14 mph 1018.8mb 69f 60f
9:54 10 15 mph 1018.8mb 69f 60f
9:48 11 14 mph 1018.7mb 69f 60f
9:42 11 15 mph 1018.7mb 69f 60f
9:36 10 15 mph 1018.7mb 69f 60f
9:30 10 13 mph 1018.6mb 69f 60f
9:24 11 14 mph 1018.6mb 69f 59f
9:18 13 15 mph 1018.6mb 69f 59f
9:12 13 16 mph 1018.6mb 69f 59f
9:06 10 15 mph 1018.7mb 69f 59f
9:00 13 14 mph 1018.7mb 70f 59f
8:54 9 13 mph 1018.7mb 69f 59f
8:48 10 14 mph 1018.7mb 70f 59f
8:42 10 14 mph 1018.6mb 70f 59f
8:36 10 14 mph 1018.6mb 70f 59f
8:30 9 11 mph 1018.4mb 70f 59f
8:24 9 14 mph 1018.3mb 70f 59f
8:18 13 15 mph - - -
8:12 11 15 mph 1017.9mb 70f 59f
8:06 13 16 mph 1017.9mb 70f 59f
8:00 14 15 mph 1017.8mb 70f 59f
7:54 11 13 mph 1017.7mb 70f 59f
7:48 9 11 mph 1017.6mb 70f 60f
7:42 8 10 mph 1017.6mb 70f 59f
7:36 8 9 mph 1017.6mb 70f 59f
7:30 7 11 mph 1017.4mb 70f 60f
7:24 7 10 mph 1017.4mb 70f 59f
7:18 8 13 mph 1017.4mb 70f 59f
7:12 8 10 mph 1017.4mb 70f 59f
7:06 9 10 mph 1017.3mb 70f 59f
7:00 10 11 mph 1017.2mb 70f 59f
6:54 9 11 mph 1017.1mb 70f 59f
6:48 10 13 mph 1017.1mb 70f 59f
6:42 8 10 mph 1017mb 70f 59f
6:36 7 10 mph 1016.9mb 70f 59f
6:30 9 11 mph 1016.9mb 70f 59f
6:24 10 13 mph 1016.9mb 70f 59f
6:18 9 13 mph 1016.8mb 70f 59f
6:12 10 11 mph 1016.7mb 70f 59f
6:06 8 11 mph 1016.6mb 70f 59f
6:00 9 13 mph 1016.7mb 70f 59f
5:54 10 15 mph 1016.6mb 70f 59f
5:48 11 14 mph 1016.5mb 70f 59f
5:42 11 14 mph 1016.4mb 70f 59f
5:36 10 13 mph 1016.3mb 70f 60f
5:30 9 11 mph 1016.3mb 70f 59f
5:24 10 13 mph 1016.2mb 70f 59f
5:18 9 11 mph 1016mb 70f 59f
5:12 10 14 mph 1016mb 70f 59f
5:06 13 15 mph 1015.9mb 70f 60f
5:00 11 14 mph 1016mb 70f 59f
4:54 11 15 mph 1016mb 70f 60f
4:48 13 15 mph 1015.8mb 70f 60f
4:42 11 14 mph 1015.8mb 70f 59f
4:36 13 14 mph 1015.6mb 70f 59f
4:30 10 13 mph 1015.4mb 70f 60f
4:24 11 14 mph 1015.5mb 70f 60f
4:18 10 14 mph 1015.4mb 70f 59f
4:12 13 15 mph 1015.4mb 70f 59f
4:06 14 15 mph 1015.3mb 70f 59f
4:00 15 17 mph 1015.2mb 70f 59f
3:54 13 14 mph 1015.2mb 70f 59f
3:48 10 14 mph 1015.2mb 70f 59f
3:42 10 13 mph 1015.2mb 70f 59f
3:36 11 14 mph 1015mb 70f 59f
3:30 11 14 mph 1015.1mb 70f 59f
3:24 11 15 mph 1015.2mb 70f 59f
3:18 11 14 mph 1015.3mb 70f 59f
3:12 11 14 mph 1015.1mb 70f 60f
3:06 11 14 mph 1015mb 70f 59f
3:00 11 14 mph 1015mb 70f 59f
2:54 13 15 mph 1015mb 71f 59f
2:48 13 15 mph 1015mb - -
2:42 13 17 mph 1014.9mb - -
2:36 13 17 mph 1014.7mb - -
2:30 14 16 mph 1014.7mb 71f 60f
2:24 13 15 mph 1014.9mb 71f 60f
2:18 9 13 mph 1015mb 71f 60f
2:12 10 14 mph 1015mb 71f 60f
2:06 9 13 mph 1014.9mb 71f 60f
2:00 10 14 mph 1014.8mb 71f 60f
1:54 11 14 mph 1014.9mb 71f 60f
1:48 9 11 mph 1015mb 71f 60f
1:42 8 11 mph 1014.9mb 71f 60f
1:36 9 10 mph 1015.1mb 71f 60f
1:30 9 11 mph 1015.1mb 71f 60f
1:24 9 13 mph 1014.9mb 71f 60f
1:18 10 14 mph 1014.8mb 71f 60f
1:12 9 14 mph 1014.8mb 71f 60f
1:06 10 13 mph 1014.8mb 71f 60f
1:00 8 10 mph 1014.8mb 71f 60f
12:54 10 13 mph 1014.7mb 71f 60f
12:48 10 13 mph 1014.7mb 71f 60f
12:42 11 14 mph 1014.6mb 71f 60f
12:36 10 11 mph 1014.5mb 71f 60f
12:30 9 11 mph 1014.6mb 71f 60f
12:24 9 11 mph 1014.6mb 71f 60f
12:18 8 10 mph 1014.4mb 71f 60f
12:12 9 11 mph 1014.4mb 71f 60f
12:06 11 14 mph 1014.5mb 71f 60f
12:00 14 15 mph 1014.4mb 71f 60f
Seg 07/24 11:54 11 16 mph 1014.3mb 71f 60f
11:48 13 16 mph 1014.3mb - -
11:42 9 13 mph 1014.2mb 71f 60f
11:36 9 13 mph 1014.3mb 71f 60f
11:30 9 16 mph 1014.3mb 71f 60f
11:24 13 16 mph 1014.2mb 71f 60f
11:18 13 15 mph 1014.2mb 71f 60f
11:12 13 15 mph 1014.1mb 71f 60f
11:06 11 15 mph 1014mb 71f 60f
11:00 14 18 mph 1013.7mb 71f 60f
10:54 14 17 mph 1013.6mb 71f 60f
10:48 16 20 mph 1013.6mb 71f 60f
10:42 14 16 mph 1013.7mb 71f 60f
10:36 14 17 mph 1013.6mb 71f 60f
10:30 11 15 mph 1013.4mb 71f 60f
10:24 14 16 mph 1013.5mb 71f 60f
10:18 14 16 mph 1013.2mb 71f 60f
10:12 14 16 mph 1013.1mb 71f 60f
10:06 14 20 mph 1013mb 71f 60f
10:00 17 22 mph 1012.9mb 71f 60f
9:54 15 21 mph 1012.8mb 71f 60f
9:48 15 18 mph 1012.9mb 71f 60f
9:42 16 21 mph 1012.8mb 71f 60f
9:36 15 20 mph 1012.7mb 71f 60f
9:30 14 18 mph 1012.8mb 71f 60f
9:24 15 18 mph 1012.8mb 71f 60f
9:18 17 21 mph 1012.8mb 71f 60f
9:12 14 20 mph 1012.7mb 71f 60f
9:06 15 18 mph 1012.7mb 71f 61f
9:00 15 20 mph 1012.6mb 71f 60f
8:54 16 20 mph 1012.6mb 71f 60f
8:48 16 22 mph 1012.4mb 71f 60f
8:42 16 22 mph 1012.3mb 71f 61f
8:36 18 22 mph 1012.2mb 71f 61f
8:30 18 25 mph 1012.1mb 71f 61f
8:24 20 22 mph 1012mb 71f 61f
8:18 16 25 mph 1011.9mb 71f 60f
8:12 18 22 mph 1011.8mb 71f 61f
8:06 16 23 mph 1011.9mb 71f 61f
8:00 20 24 mph 1011.8mb 71f 61f
7:54 20 25 mph 1011.8mb 71f 61f
7:48 20 24 mph 1011.6mb 71f 61f
7:42 18 22 mph 1011.6mb 71f 60f
7:36 22 25 mph 1011.3mb 71f 61f
7:30 21 25 mph 1011.1mb 71f 60f
7:24 18 24 mph 1010.9mb 71f 60f
7:18 20 23 mph 1011mb 71f 60f
7:12 21 24 mph 1011mb 71f 60f
7:06 20 23 mph 1011.1mb 71f 60f
7:00 21 24 mph 1011mb 71f 60f
6:54 18 24 mph 1010.9mb 71f 60f
6:48 17 23 mph 1010.8mb 71f 60f
6:42 20 25 mph 1010.7mb 71f 60f
6:36 18 22 mph 1010.7mb 71f 60f
6:30 20 25 mph 1010.8mb 71f 60f
6:24 18 23 mph 1010.7mb 71f 60f
6:18 20 24 mph 1010.7mb 71f 60f
6:12 22 24 mph 1010.6mb 71f 60f
6:06 20 26 mph 1010.7mb 71f 60f
6:00 20 24 mph 1010.6mb 72f 60f
5:54 22 25 mph 1010.7mb 72f 60f
5:48 22 26 mph 1010.7mb 72f 59f
5:42 20 24 mph 1010.6mb 72f 60f
5:36 18 24 mph 1010.6mb 72f 60f
5:30 21 24 mph 1010.6mb 72f 60f
5:24 24 29 mph 1010.5mb 72f 60f
5:18 20 23 mph 1010.5mb 72f 60f
5:12 20 23 mph 1010.7mb 72f 60f
5:06 15 22 mph 1010.7mb 72f 60f
5:00 20 24 mph 1010.7mb 72f 60f
4:54 18 21 mph 1010.7mb 72f 60f
4:48 18 23 mph 1010.8mb 72f 60f
4:42 17 23 mph 1010.8mb 72f 60f
4:36 17 24 mph 1010.8mb 72f 60f
4:30 18 22 mph 1010.8mb 72f 60f
4:24 17 24 mph 1010.6mb 72f 60f
4:18 18 23 mph 1010.3mb 72f 60f
4:12 17 25 mph 1010.4mb 72f 60f
4:06 18 22 mph 1010.3mb 72f 60f
4:00 18 25 mph 1010.2mb 72f 60f
3:54 18 25 mph 1010.1mb 72f 60f
3:48 18 25 mph 1010.2mb 72f 60f
3:42 17 24 mph 1010.1mb 72f 60f
3:36 17 23 mph 1010mb 72f 60f
3:30 17 25 mph 1010.1mb 72f 60f
3:24 21 24 mph 1010.5mb 72f 60f
3:18 20 28 mph 1010.4mb 72f 60f
3:12 16 21 mph 1009.9mb 72f 59f
3:06 17 23 mph 1010.3mb 72f 59f
3:00 17 22 mph 1010.2mb 72f 59f
2:54 20 22 mph 1010.4mb 72f 59f
2:48 16 21 mph 1010.6mb 72f 59f
2:42 18 26 mph 1010.6mb 72f 60f
2:36 24 30 mph 1010.1mb 72f 59f
2:30 26 30 mph 1010mb 72f 60f
2:24 17 21 mph 1010.7mb 72f 60f
2:18 17 21 mph 1011mb 72f 59f
2:12 15 22 mph 1010.9mb 72f 59f
2:06 18 24 mph 1010.4mb 72f 60f
2:00 17 20 mph 1010.4mb 72f 60f
1:54 13 16 mph 1010.6mb 72f 60f
1:48 9 15 mph 1010.6mb 72f 60f
1:42 10 17 mph 1010.5mb 72f 60f
1:36 13 18 mph 1010.4mb 72f 60f
1:30 15 21 mph 1010.4mb 72f 60f
1:24 11 15 mph 1010.5mb 72f 60f
1:18 11 17 mph 1010.5mb 72f 60f
1:12 13 16 mph 1010.6mb 72f 60f
1:06 13 17 mph 1010.6mb 72f 60f
1:00 14 21 mph 1010.7mb 72f 60f
12:54 13 17 mph 1010.7mb 72f 60f
12:48 11 16 mph 1010.8mb 72f 60f
12:42 11 16 mph 1010.8mb 72f 60f
12:36 9 14 mph 1010.9mb 72f 60f
12:30 9 11 mph 1010.9mb 72f 60f
12:24 6 13 mph 1011mb 72f 60f
12:18 10 16 mph 1011mb 72f 60f
12:12 14 17 mph 1010.8mb 72f 59f
12:06 14 18 mph 1010.7mb 73f 60f
12:00 11 16 mph 1010.9mb 73f 60f
11:54 13 17 mph 1010.8mb 73f 60f
11:48 16 21 mph 1010.8mb 73f 60f
11:42 17 20 mph 1010.8mb 73f 60f
11:36 14 20 mph 1011.1mb 73f 61f
11:30 14 18 mph 1011.3mb 72f 61f
11:24 16 22 mph 1011.1mb 72f 61f
11:18 16 21 mph 1011.2mb 72f 61f
11:12 14 21 mph 1011.3mb 72f 61f
11:06 15 22 mph 1011.4mb 72f 60f
11:00 17 22 mph 1011.4mb 72f 61f
10:54 16 21 mph 1011.4mb 73f 61f
10:48 17 22 mph 1011.7mb 73f 61f
10:42 14 21 mph 1011.8mb 73f 61f
10:36 16 22 mph 1012mb 73f 61f
10:30 17 22 mph 1011.9mb 73f 61f
10:24 17 23 mph 1012mb 73f 61f
10:18 17 22 mph 1011.9mb 73f 61f
10:12 16 21 mph 1011.9mb 73f 62f
10:06 17 22 mph 1011.8mb 72f 62f
10:00 15 18 mph 1011.9mb 72f 62f
9:54 17 22 mph 1011.9mb 72f 61f
9:48 17 21 mph 1011.9mb 72f 61f
9:42 15 20 mph 1011.7mb 72f 61f
9:36 16 20 mph 1011.6mb 72f 61f
9:30 14 20 mph 1011.8mb 72f 61f
9:24 14 23 mph 1011.7mb 72f 61f
9:18 20 25 mph 1011.4mb 72f 61f
9:12 16 22 mph 1011.3mb 72f 61f
9:06 16 20 mph 1011.7mb 73f 61f
9:00 14 20 mph 1011.9mb 73f 62f
8:54 14 16 mph 1012mb 73f 61f
8:48 13 15 mph 1012.1mb 73f 62f
8:42 11 15 mph 1012.3mb 73f 62f
8:36 10 13 mph 1012.5mb 73f 62f
8:30 10 13 mph 1012.6mb 73f 62f
8:24 9 15 mph 1012.4mb 73f 62f
8:18 13 16 mph 1012.2mb 73f 62f
8:12 13 15 mph 1012.2mb 73f 62f
8:06 11 15 mph 1012.3mb 73f 62f
8:00 13 17 mph 1012.4mb 73f 62f
7:54 14 17 mph 1012mb 73f 63f
7:48 13 15 mph 1012mb 73f 62f
7:42 11 14 mph 1012.1mb 73f 63f
7:36 10 15 mph 1012.1mb 73f 63f
7:30 13 16 mph 1011.9mb 73f 63f
7:24 14 16 mph 1011.7mb 73f 63f
7:18 13 15 mph 1011.8mb 72f 63f
7:12 13 14 mph 1012.1mb 72f 63f
7:06 11 14 mph 1012.1mb 72f 64f
7:00 11 13 mph 1012.1mb 72f 64f
6:54 11 13 mph 1012.1mb 72f 65f
6:48 10 14 mph 1012.2mb 72f 65f
6:42 9 11 mph 1012.2mb 72f 65f
6:36 9 13 mph 1012.3mb 72f 66f
6:30 10 14 mph 1012.4mb 72f 66f
6:24 13 15 mph 1012.3mb 73f 67f
6:18 14 16 mph 1012.4mb 73f 67f
6:12 14 16 mph 1012.5mb 73f 67f
6:06 13 16 mph 1012.5mb 73f 67f
6:00 14 15 mph 1012.5mb 73f 67f
5:54 14 17 mph 1012.6mb 73f 67f
5:48 11 14 mph 1012.6mb 73f 67f
5:42 9 10 mph 1012.8mb 74f 66f
5:36 8 9 mph 1012.8mb 74f 66f
5:30 7 8 mph 1012.8mb 74f 65f
5:24 6 9 mph 1012.7mb 74f 65f
5:18 7 9 mph 1012.5mb 74f 65f
5:12 7 8 mph 1012.5mb 74f 65f
5:06 6 8 mph 1012.7mb 74f 65f
5:00 8 9 mph 1012.6mb 74f 65f
4:54 8 9 mph 1012.4mb 74f 65f
4:48 9 11 mph 1012.3mb 74f 65f
4:42 11 14 mph 1012.3mb 74f 65f
4:36 11 13 mph 1012.2mb 74f 65f
4:30 10 13 mph 1012.4mb 74f 65f
4:24 7 9 mph 1012.7mb 74f 65f
4:18 7 9 mph 1013mb 74f 65f
4:12 7 8 mph 1012.9mb 74f 65f
4:06 7 8 mph 1012.8mb 74f 65f
4:00 8 9 mph 1012.8mb 74f 65f
3:54 7 9 mph 1012.9mb 74f 65f
3:48 8 10 mph 1012.8mb 74f 65f
3:42 8 9 mph 1012.8mb 74f 65f
3:36 8 10 mph 1012.7mb 74f 66f
3:30 8 10 mph 1012.8mb 74f 66f
3:24 9 10 mph 1012.6mb 74f 66f
3:18 7 8 mph 1012.9mb 74f 66f
3:12 7 9 mph 1012.9mb 74f 66f
3:06 7 8 mph 1012.9mb 74f 65f
3:00 6 7 mph 1013mb 74f 65f
2:54 6 8 mph 1013mb 74f 65f
2:48 6 9 mph 1012.9mb 74f 65f
2:42 9 11 mph 1012.6mb 74f 65f
2:36 9 10 mph 1012.8mb 74f 65f
2:30 9 11 mph 1012.8mb 74f 65f
2:24 8 8 mph 1013mb 74f 65f
2:18 8 9 mph 1013mb 74f 65f
2:12 7 9 mph 1013.1mb 74f 65f
2:06 7 8 mph 1013.3mb 74f 66f
2:00 6 7 mph 1013.4mb 74f 66f
1:54 6 7 mph 1013.5mb 74f 66f
1:48 6 8 mph 1013.6mb 74f -
1:42 7 8 mph 1013.5mb 74f -
1:36 7 8 mph 1013.5mb 74f -
1:30 7 9 mph 1013.5mb 74f 66f
1:24 7 9 mph 1013.5mb 74f 66f
1:18 7 9 mph 1013.4mb 74f 66f
1:12 7 8 mph 1013.4mb 74f 66f
1:06 7 8 mph 1013.5mb 74f 66f
1:00 6 8 mph 1013.5mb 74f 66f
12:54 6 8 mph 1013.7mb 74f 66f
12:48 7 8 mph 1013.8mb 74f 66f
12:42 6 7 mph 1013.9mb 74f 66f
12:36 6 8 mph 1013.9mb 74f 66f
12:30 6 8 mph 1013.8mb 74f 66f
12:24 7 8 mph 1013.7mb 74f 66f
12:18 7 9 mph 1013.8mb 74f 66f
12:12 7 9 mph 1013.8mb 74f 67f
12:06 7 8 mph 1013.8mb 74f 66f
12:00 7 8 mph 1013.9mb 74f 66f
Dom 07/23 11:54 7 8 mph 1013.9mb 74f 66f
11:48 7 9 mph 1013.7mb 74f 66f
11:42 7 8 mph 1013.6mb 74f 66f
11:36 7 8 mph 1013.5mb 74f 66f
11:30 7 8 mph 1013.5mb 74f 66f
11:24 7 9 mph 1013.3mb 74f 66f
11:18 8 9 mph 1013.4mb 74f 66f
11:12 7 9 mph 1013.5mb 74f 67f
11:06 7 10 mph 1013.4mb 74f 67f
11:00 8 11 mph 1013.3mb 74f 67f
10:54 9 11 mph 1013.3mb 74f 66f
10:48 9 11 mph 1013.3mb 74f 67f
10:42 10 13 mph 1013.4mb 74f 67f
10:36 10 11 mph 1013.3mb 74f 66f
10:30 8 11 mph 1013.4mb 74f 67f
10:24 8 10 mph 1013.4mb 74f 67f
10:18 10 13 mph 1013.5mb 74f 67f
10:12 10 14 mph 1013.5mb 74f 67f
10:06 10 13 mph 1013.4mb 74f 67f
10:00 10 14 mph 1013.5mb 74f 67f
9:54 11 14 mph 1013.3mb 74f 67f
9:48 10 14 mph 1013.4mb 73f 67f
9:42 11 14 mph 1013.3mb 73f 67f
9:36 11 14 mph 1013.4mb 73f 67f
9:30 14 15 mph 1013.2mb 73f 67f
9:24 11 15 mph 1013.2mb 73f 67f
9:18 13 15 mph 1013.4mb 73f 67f
9:12 13 16 mph 1013.2mb 73f 67f
9:06 14 16 mph 1013mb 73f 67f
9:00 13 14 mph 1013mb 73f 68f
8:54 10 14 mph 1013.1mb 73f 68f
8:48 11 14 mph 1013mb 73f 68f
8:42 11 13 mph 1013mb 73f 69f
8:36 10 13 mph 1013.1mb 73f 69f
8:30 10 13 mph 1013mb 73f 69f
8:24 10 14 mph 1012.9mb 72f 69f
8:18 11 14 mph 1012.7mb 72f 69f
8:12 11 14 mph 1012.7mb 72f 69f
8:06 11 14 mph 1012.6mb 72f 70f
8:00 13 14 mph 1012.5mb 73f 70f
7:54 11 14 mph 1012.4mb 73f 70f
7:48 13 14 mph 1012.5mb 73f 70f
7:42 11 14 mph 1012.5mb 73f 70f
7:36 13 14 mph 1012.3mb 73f 71f
7:30 10 14 mph 1012.4mb 73f 71f
7:24 11 14 mph 1012.3mb 73f 71f
7:18 10 13 mph 1012.3mb 73f 71f
7:12 10 13 mph 1012.2mb 73f 71f
7:06 10 13 mph 1012.1mb 73f 71f
7:00 11 13 mph 1012.1mb 73f 72f
6:54 10 13 mph 1012mb 73f 72f
6:48 11 13 mph 1011.8mb 73f 72f
6:42 9 11 mph 1011.9mb 72f 73f
6:36 11 13 mph 1011.9mb 72f 73f
6:30 10 14 mph 1011.9mb 72f 73f
6:24 13 14 mph 1011.7mb 71f 73f
6:18 10 14 mph 1011.8mb 72f 73f
6:12 10 13 mph 1011.8mb 72f 74f
6:06 11 14 mph 1011.8mb 72f 73f
6:00 10 11 mph 1011.7mb 71f 74f
5:54 10 13 mph 1011.7mb 71f 74f
5:48 11 14 mph 1011.6mb 71f 74f
5:42 11 13 mph 1011.7mb 71f 73f
5:36 11 13 mph 1011.6mb 71f 74f
5:30 11 13 mph 1011.5mb 71f 73f
5:24 11 14 mph 1011.6mb 71f 74f
5:18 9 13 mph 1011.5mb 71f 74f
5:12 8 13 mph 1011.6mb 71f 75f
5:06 10 11 mph 1011.6mb 72f 74f
5:00 10 14 mph 1011.6mb 72f 74f
4:54 9 13 mph 1011.6mb 72f 74f
4:48 13 15 mph 1011.5mb 72f 74f
4:42 11 13 mph 1011.6mb 72f 74f
4:36 11 13 mph 1011.6mb 72f 74f
4:30 8 13 mph 1011.6mb 72f 75f
4:24 10 13 mph 1011.6mb 72f 75f
4:18 10 14 mph 1011.6mb 73f 75f
4:12 14 16 mph 1011.4mb 73f 74f
4:06 11 14 mph 1011.5mb 74f 74f
4:00 11 14 mph 1011.5mb 74f 74f
3:54 13 14 mph 1011.3mb 74f 75f
3:48 14 16 mph 1011.2mb 72f 75f
3:42 10 14 mph 1011.3mb 72f 75f
3:36 13 16 mph 1011.1mb 72f 74f
3:30 14 17 mph 1011.2mb 72f 75f
3:24 10 16 mph 1011.3mb 72f 75f
3:18 14 17 mph 1011.3mb 72f 75f
3:12 14 16 mph 1011.4mb 73f 75f
3:06 14 15 mph 1011.5mb 73f 74f
3:00 14 16 mph 1011.4mb 74f 75f
2:54 15 17 mph 1011.4mb 74f 75f
2:48 11 16 mph 1011.6mb 74f 75f
2:42 14 16 mph 1011.4mb 74f 75f
2:36 15 18 mph 1011.3mb 74f 74f
2:30 16 18 mph 1011.3mb 75f 74f
2:24 16 20 mph 1011.3mb 75f 74f
2:18 14 15 mph 1011.4mb 75f 74f
2:12 14 17 mph 1011.5mb 75f 73f
2:06 14 17 mph 1011.6mb 75f 73f
2:00 14 16 mph 1011.6mb 75f 73f
1:54 15 20 mph 1011.6mb 75f 73f
1:48 14 17 mph 1011.6mb 75f 73f
1:42 13 16 mph 1011.6mb 75f 73f
1:36 14 18 mph 1011.5mb 75f 73f
1:30 16 20 mph 1011.5mb 75f 73f
1:24 17 21 mph 1011.4mb 75f 73f
1:18 14 17 mph 1011.4mb 75f 73f
1:12 13 17 mph 1011.4mb 75f 74f
1:06 14 18 mph 1011.3mb 75f 73f
1:00 14 20 mph 1011.3mb 75f 73f
12:54 17 18 mph 1011.3mb 75f 73f
12:48 16 18 mph 1011.3mb 75f 73f
12:42 14 17 mph 1011.3mb 75f 73f
12:36 14 17 mph 1011.3mb 75f 73f
12:30 11 17 mph 1011.3mb 75f 73f
12:24 15 22 mph 1011.2mb 75f 73f
12:18 16 21 mph 1011mb 75f 73f
12:12 17 22 mph 1010.9mb 75f 73f
12:06 16 20 mph 1010.8mb 75f 73f
12:00 18 23 mph 1010.8mb 75f 73f
11:54 17 22 mph 1010.8mb 75f 73f
11:48 18 22 mph 1010.7mb 75f 73f
11:42 18 22 mph 1010.7mb 75f 73f
11:36 21 25 mph 1010.6mb 75f 73f
11:30 17 25 mph 1010.7mb 75f 73f
11:24 21 22 mph 1010.7mb 75f 73f
11:18 18 22 mph 1010.8mb 75f 73f
11:12 18 24 mph 1010.7mb 75f 73f
11:06 21 24 mph 1010.7mb 75f 73f
11:00 18 22 mph 1010.7mb 75f 73f
10:54 16 21 mph 1010.7mb 75f 73f
10:48 15 20 mph 1010.6mb 75f 73f
10:42 18 22 mph 1010.5mb 75f 72f
10:36 17 23 mph 1010.6mb 75f 72f
10:30 20 24 mph 1010.5mb 75f 72f
10:24 14 17 mph 1010.5mb 75f 72f
10:18 14 20 mph 1010.4mb 75f 72f
10:12 18 20 mph 1010.5mb 75f 72f
10:06 16 20 mph 1010.5mb 75f 72f
10:00 13 17 mph 1010.5mb 75f 71f
9:54 17 23 mph 1010.4mb 75f 71f
9:48 14 21 mph 1010.4mb 75f 71f
9:42 13 17 mph 1010.3mb 75f 71f
9:36 15 17 mph 1010.2mb 75f 71f
9:30 14 18 mph 1010.1mb 75f 71f
9:24 13 18 mph 1010mb 75f 71f
9:18 15 21 mph 1010.1mb 75f 71f
9:12 17 20 mph 1010mb 75f 71f
9:06 14 21 mph 1009.9mb 75f 70f
9:00 15 21 mph 1009.9mb 75f 70f
8:54 11 17 mph 1009.7mb 75f 71f
8:48 15 25 mph 1009.6mb 75f 71f
8:42 17 23 mph 1009.4mb 74f 70f
8:36 15 20 mph 1009.5mb 74f 70f
8:30 18 24 mph 1009.3mb 74f 70f
8:24 18 24 mph 1009.1mb 74f 70f
8:18 20 28 mph 1009.1mb 74f 70f
8:12 25 29 mph 1008.9mb 74f 70f
8:06 22 31 mph 1008.8mb 74f 70f
8:00 22 25 mph 1008.7mb 74f 70f
7:54 20 25 mph 1008.8mb 75f 70f
7:48 21 26 mph 1008.7mb 75f 70f
7:42 17 24 mph 1008.7mb 75f 70f
7:36 20 26 mph 1008.6mb 75f 70f
7:30 20 24 mph 1008.5mb 75f 70f
7:24 22 28 mph 1008.5mb 75f 70f
7:18 20 25 mph 1008.5mb 75f 70f
7:12 18 24 mph 1008.5mb 75f 70f
7:06 18 25 mph 1008.3mb 75f 70f
7:00 16 22 mph 1008.1mb 75f 71f
6:54 15 22 mph 1008mb 75f 71f
6:48 15 21 mph 1007.8mb 75f 71f
6:42 14 20 mph 1007.7mb 75f 71f
6:36 15 17 mph 1007.8mb 74f 71f
6:30 15 20 mph 1007.7mb 74f 71f
6:24 14 18 mph 1007.6mb 74f 71f
6:18 15 18 mph 1007.4mb 74f 71f
6:12 11 14 mph 1007.4mb 74f 71f
6:06 11 17 mph 1007.3mb 74f 72f
6:00 14 16 mph 1007.2mb 74f 72f
5:54 14 16 mph 1007.2mb 74f 72f
5:48 14 17 mph 1007mb 73f 72f
5:42 10 14 mph 1007mb 74f 73f
5:36 11 13 mph 1007mb 74f 73f
5:30 8 9 mph 1007mb 75f 73f
5:24 8 9 mph 1007mb 75f 73f
5:18 7 8 mph 1007mb 75f 73f
5:12 6 7 mph 1007mb 76f 73f
5:06 5 6 mph 1007mb 76f 73f
5:00 6 6 mph 1006.9mb 76f 73f
4:54 6 6 mph 1006.8mb 76f 73f
4:48 6 7 mph 1006.8mb 76f 73f
4:42 7 7 mph 1006.7mb 76f 73f
4:36 6 7 mph 1006.7mb 76f 73f
4:30 6 6 mph 1006.9mb 76f 73f
4:24 6 6 mph 1006.8mb 76f 73f
4:18 3 3 mph 1006.8mb 76f 73f
4:12 3 3 mph 1006.9mb 76f 73f
4:06 2 3 mph 1006.8mb 76f 73f
4:00 2 2 mph 1006.8mb 76f 73f
3:54 2 2 mph 1006.8mb 76f 73f
3:48 2 3 mph 1006.9mb 76f 73f
3:42 2 3 mph 1006.9mb 76f 73f
3:36 2 3 mph 1006.8mb 76f 73f
3:30 2 3 mph 1006.9mb 76f 73f
3:24 3 6 mph 1006.9mb 76f 73f
3:18 5 7 mph 1006.9mb 76f 73f
3:12 5 6 mph 1007mb 76f 73f
3:06 5 6 mph 1007mb 76f 73f
3:00 5 6 mph 1007mb 76f 74f
2:54 3 5 mph 1007mb 76f 73f